X  Fermer Données météorologiques d'aviation de Metar        EDDE Erfurt
Température
17°C Température
17°C Point de rosée
100% Humidité



Vent
9 KM/H
6 MPH
3 M/S
5 KTS



340°
NNO
Conditions actuelles

Mostly Cloudy with Showers Nearby Plutôt nuageux , Averses Proche
Pression 1011 (hPa) - 29.86 (inHg)
Visibilité 6 (mile) - 10 (km)
Aéroport
Code de l'aéroport EDDE

Emplacement: Erfurt
Distance: 25 (km)

Metar:
METAR EDDE 182350Z AUTO 34005KT 9999 VCSH FEW004 BKN022 BKN037 FEW///TCU 17/17 Q1012

Temps: 19.06.2024 01:50 CEST